Terminal Aerodrome Forecast
Issued by NWS Sterling, VA

Current Version | Previous Version | Graphics & Text | Print | Product List | Glossary On
Versions: 1 2 3 4 5 6 7 8 9 10 11 12 13 14 15 16 17 18 19 20 21 22 23 24
000
FTUS41 KLWX 311400 AAA
TAFDCA
TAF AMD
KDCA 311456Z 3115/0112 21008KT P6SM SCT090
     FM311700 21009KT P6SM BKN090
     FM311800 21010KT P6SM VCTS BKN090CB
     FM312300 24004KT P6SM VCTS OVC040CB
     FM010000 00000KT P6SM -TSRA OVC040CB
      TEMPO 0100/0103 4SM -TSRA
     FM010300 00000KT P6SM OVC040=

USA.gov is the U.S. government's official web portal to all federal, state and local government web resources and services.